createdAt,value
2022-12-23T00:00:04.380Z,984.62
2022-12-23T00:00:35.804Z,984.62
2022-12-23T00:01:07.455Z,984.62
2022-12-23T00:01:34.248Z,984.52
2022-12-23T00:01:55.708Z,984.52
2022-12-23T00:02:27.766Z,984.52
2022-12-23T00:02:59.805Z,984.52
2022-12-23T00:03:32.176Z,984.52
2022-12-23T00:04:03.590Z,984.42
2022-12-23T00:04:36.261Z,984.42
2022-12-23T00:05:07.835Z,984.62
2022-12-23T00:05:37.732Z,984.52
2022-12-23T00:05:55.961Z,984.52
2022-12-23T00:06:27.596Z,984.52
2022-12-23T00:06:59.520Z,984.62
2022-12-23T00:07:32.009Z,984.62
2022-12-23T00:08:03.522Z,984.52
2022-12-23T00:08:35.545Z,984.52
2022-12-23T00:09:07.596Z,984.42
2022-12-23T00:09:34.654Z,984.52
2022-12-23T00:09:55.564Z,984.52
2022-12-23T00:10:28.206Z,984.52
2022-12-23T00:11:00.534Z,984.52
2022-12-23T00:11:32.002Z,984.52
2022-12-23T00:12:03.508Z,984.42
2022-12-23T00:12:35.533Z,984.42
2022-12-23T00:13:07.507Z,984.32
2022-12-23T00:13:34.086Z,984.22
2022-12-23T00:13:55.442Z,984.22
2022-12-23T00:14:27.494Z,984.22
2022-12-23T00:14:59.511Z,984.42
2022-12-23T00:15:32.643Z,984.42
2022-12-23T00:16:03.708Z,984.32
2022-12-23T00:16:35.568Z,984.32
2022-12-23T00:17:21.510Z,984.32
2022-12-23T00:17:34.156Z,984.22
2022-12-23T00:17:56.051Z,984.22
2022-12-23T00:18:27.489Z,984.22
2022-12-23T00:18:59.569Z,984.32
2022-12-23T00:19:31.925Z,984.32
2022-12-23T00:20:04.000Z,984.32
2022-12-23T00:20:36.350Z,984.32
2022-12-23T00:21:09.115Z,984.42
2022-12-23T00:21:34.119Z,984.52
2022-12-23T00:21:55.453Z,984.52
2022-12-23T00:22:27.447Z,984.52
2022-12-23T00:22:59.444Z,984.52
2022-12-23T00:23:31.898Z,984.52
2022-12-23T00:24:03.488Z,984.62
2022-12-23T00:24:35.459Z,984.62
2022-12-23T00:25:07.787Z,984.42
2022-12-23T00:25:34.134Z,984.52
2022-12-23T00:25:55.685Z,984.52
2022-12-23T00:26:27.422Z,984.52
2022-12-23T00:27:00.526Z,984.32
2022-12-23T00:27:37.418Z,984.32
2022-12-23T00:28:03.520Z,984.52
2022-12-23T00:28:35.486Z,984.52
2022-12-23T00:29:07.493Z,984.52
2022-12-23T00:29:34.140Z,984.22
2022-12-23T00:29:55.473Z,984.22
2022-12-23T00:30:28.014Z,984.22
2022-12-23T00:30:59.494Z,984.42
2022-12-23T00:31:32.114Z,984.42
2022-12-23T00:32:03.483Z,984.52
2022-12-23T00:32:35.559Z,984.52
2022-12-23T00:33:07.497Z,984.52
2022-12-23T00:33:34.642Z,984.32
2022-12-23T00:33:55.738Z,984.32
2022-12-23T00:34:27.542Z,984.32
2022-12-23T00:34:59.529Z,984.42
2022-12-23T00:35:32.320Z,984.42
2022-12-23T00:36:03.598Z,984.22
2022-12-23T00:36:36.415Z,984.22
2022-12-23T00:37:07.709Z,984.22
2022-12-23T00:37:34.331Z,984.32
2022-12-23T00:37:55.699Z,984.32
2022-12-23T00:38:27.522Z,984.32
2022-12-23T00:38:59.551Z,984.32
2022-12-23T00:39:31.974Z,984.32
2022-12-23T00:40:06.756Z,984.12
2022-12-23T00:40:35.819Z,984.12
2022-12-23T00:41:07.517Z,984.32
2022-12-23T00:41:34.175Z,984.32
2022-12-23T00:41:55.521Z,984.32
2022-12-23T00:42:27.591Z,984.32
2022-12-23T00:43:00.496Z,984.22
2022-12-23T00:43:31.990Z,984.22
2022-12-23T00:44:03.457Z,984.22
2022-12-23T00:44:35.919Z,984.22
2022-12-23T00:45:08.055Z,984.02
2022-12-23T00:45:34.133Z,984.32
2022-12-23T00:45:55.745Z,984.32
2022-12-23T00:46:27.513Z,984.32
2022-12-23T00:46:59.483Z,984.32
2022-12-23T00:47:31.886Z,984.32
2022-12-23T00:48:03.433Z,984.02
2022-12-23T00:48:35.501Z,984.02
2022-12-23T00:49:07.439Z,984.22
2022-12-23T00:49:34.088Z,984.22
2022-12-23T00:49:55.463Z,984.22
2022-12-23T00:50:27.981Z,984.22
2022-12-23T00:50:59.502Z,984.32
2022-12-23T00:51:31.906Z,984.32
2022-12-23T00:52:03.502Z,984.12
2022-12-23T00:52:36.289Z,984.12
2022-12-23T00:53:07.579Z,984.22
2022-12-23T00:53:34.128Z,984.12
2022-12-23T00:53:55.516Z,984.12
2022-12-23T00:54:27.458Z,984.12
2022-12-23T00:54:59.448Z,984.22
2022-12-23T00:55:32.171Z,984.22
2022-12-23T00:56:03.457Z,984.12
2022-12-23T00:56:35.477Z,984.12
2022-12-23T00:57:07.507Z,984.22
2022-12-23T00:57:34.094Z,984.22
2022-12-23T00:57:55.472Z,984.22
2022-12-23T00:58:27.468Z,984.22
2022-12-23T00:59:00.174Z,984.32
2022-12-23T00:59:31.886Z,984.32
2022-12-23T01:00:04.362Z,984.42
2022-12-23T01:00:35.455Z,984.42
2022-12-23T01:01:07.554Z,984.32
2022-12-23T01:01:34.157Z,984.22
2022-12-23T01:01:55.609Z,984.22
2022-12-23T01:02:27.482Z,984.22
2022-12-23T01:02:59.513Z,984.42
2022-12-23T01:03:31.978Z,984.42
2022-12-23T01:04:03.434Z,984.22
2022-12-23T01:04:35.435Z,984.22
2022-12-23T01:05:07.851Z,984.22
2022-12-23T01:05:34.110Z,984.32
2022-12-23T01:05:55.767Z,984.32
2022-12-23T01:06:27.456Z,984.32
2022-12-23T01:06:59.460Z,984.42
2022-12-23T01:07:31.934Z,984.42
2022-12-23T01:08:03.454Z,984.32
2022-12-23T01:08:36.195Z,984.32
2022-12-23T01:09:07.439Z,984.32
2022-12-23T01:09:34.118Z,984.32
2022-12-23T01:09:55.417Z,984.32
2022-12-23T01:10:27.724Z,984.32
2022-12-23T01:10:59.460Z,984.52
2022-12-23T01:11:32.014Z,984.52
2022-12-23T01:12:03.455Z,984.42
2022-12-23T01:12:35.455Z,984.42
2022-12-23T01:13:07.495Z,984.42
2022-12-23T01:13:34.721Z,984.32
2022-12-23T01:13:55.469Z,984.32
2022-12-23T01:14:27.445Z,984.32
2022-12-23T01:15:03.058Z,984.42
2022-12-23T01:15:31.963Z,984.42
2022-12-23T01:16:03.638Z,984.42
2022-12-23T01:16:35.689Z,984.42
2022-12-23T01:17:07.626Z,984.52
2022-12-23T01:17:34.107Z,984.42
2022-12-23T01:17:55.436Z,984.42
2022-12-23T01:18:27.448Z,984.42
2022-12-23T01:18:59.516Z,984.42
2022-12-23T01:19:32.070Z,984.42
2022-12-23T01:20:04.928Z,984.42
2022-12-23T01:20:35.512Z,984.42
2022-12-23T01:21:07.439Z,984.42
2022-12-23T01:21:34.591Z,984.52
2022-12-23T01:21:55.425Z,984.52
2022-12-23T01:22:27.475Z,984.52
2022-12-23T01:22:59.534Z,984.52
2022-12-23T01:23:31.926Z,984.52
2022-12-23T01:24:03.420Z,984.52
2022-12-23T01:24:35.533Z,984.52
2022-12-23T01:25:07.825Z,984.62
2022-12-23T01:25:34.139Z,984.52
2022-12-23T01:26:06.289Z,984.52
2022-12-23T01:26:28.355Z,984.52
2022-12-23T01:26:59.539Z,984.42
2022-12-23T01:27:31.918Z,984.42
2022-12-23T01:28:03.501Z,984.62
2022-12-23T01:28:35.510Z,984.62
2022-12-23T01:29:07.473Z,984.62
2022-12-23T01:29:34.988Z,984.52
2022-12-23T01:29:55.444Z,984.52
2022-12-23T01:30:28.029Z,984.52
2022-12-23T01:30:59.545Z,984.62
2022-12-23T01:31:32.040Z,984.62
2022-12-23T01:32:03.531Z,984.52
2022-12-23T01:32:36.337Z,984.52
2022-12-23T01:33:07.527Z,984.32
2022-12-23T01:33:34.088Z,984.32
2022-12-23T01:33:55.399Z,984.32
2022-12-23T01:34:32.525Z,984.32
2022-12-23T01:34:59.539Z,984.52
2022-12-23T01:35:32.646Z,984.52
2022-12-23T01:36:03.437Z,984.32
2022-12-23T01:36:35.517Z,984.32
2022-12-23T01:37:07.447Z,984.62
2022-12-23T01:37:34.123Z,984.42
2022-12-23T01:37:55.458Z,984.42
2022-12-23T01:38:27.491Z,984.42
2022-12-23T01:39:00.119Z,984.42
2022-12-23T01:39:31.934Z,984.42
2022-12-23T01:40:03.763Z,984.42
2022-12-23T01:40:35.818Z,984.42
2022-12-23T01:41:07.966Z,984.52
2022-12-23T01:41:34.158Z,984.42
2022-12-23T01:41:55.841Z,984.42
2022-12-23T01:42:27.462Z,984.42
2022-12-23T01:42:59.654Z,984.62
2022-12-23T01:43:32.120Z,984.62
2022-12-23T01:44:04.568Z,984.62
2022-12-23T01:44:35.893Z,984.62
2022-12-23T01:45:08.657Z,984.52
2022-12-23T01:45:34.644Z,984.52
2022-12-23T01:45:56.441Z,984.52
2022-12-23T01:46:27.753Z,984.52
2022-12-23T01:46:59.836Z,984.62
2022-12-23T01:47:32.236Z,984.62
2022-12-23T01:48:03.672Z,984.52
2022-12-23T01:48:36.912Z,984.52
2022-12-23T01:49:07.676Z,984.73
2022-12-23T01:49:34.410Z,984.62
2022-12-23T01:49:56.593Z,984.62
2022-12-23T01:50:27.940Z,984.62
2022-12-23T01:50:59.736Z,984.83
2022-12-23T01:51:32.049Z,984.83
2022-12-23T01:52:03.477Z,984.62
2022-12-23T01:52:35.628Z,984.62
2022-12-23T01:53:08.504Z,984.83
2022-12-23T01:53:34.246Z,984.62
2022-12-23T01:53:55.454Z,984.62
2022-12-23T01:54:27.497Z,984.62
2022-12-23T01:55:00.788Z,984.62
2022-12-23T01:55:32.040Z,984.62
2022-12-23T01:56:03.519Z,984.73
2022-12-23T01:56:35.964Z,984.73
2022-12-23T01:57:07.546Z,984.62
2022-12-23T01:57:34.118Z,984.73
2022-12-23T01:57:55.468Z,984.73
2022-12-23T01:58:27.505Z,984.73
2022-12-23T01:58:59.576Z,984.62
2022-12-23T01:59:31.999Z,984.62
2022-12-23T02:00:04.966Z,984.83
2022-12-23T02:00:35.980Z,984.83
2022-12-23T02:01:07.572Z,984.93
2022-12-23T02:01:34.250Z,984.73
2022-12-23T02:01:55.572Z,984.73
2022-12-23T02:02:27.674Z,984.73
2022-12-23T02:02:59.757Z,984.83
2022-12-23T02:03:32.110Z,984.83
2022-12-23T02:04:03.482Z,984.83
2022-12-23T02:04:36.337Z,984.83
2022-12-23T02:05:07.867Z,984.83
2022-12-23T02:05:34.178Z,984.83
2022-12-23T02:05:55.816Z,984.83
2022-12-23T02:06:27.474Z,984.83
2022-12-23T02:06:59.562Z,985.03
2022-12-23T02:07:32.026Z,985.03
2022-12-23T02:08:03.521Z,984.93
2022-12-23T02:08:35.517Z,984.93
2022-12-23T02:09:07.492Z,984.83
2022-12-23T02:09:34.592Z,984.73
2022-12-23T02:09:55.493Z,984.73
2022-12-23T02:10:27.771Z,984.73
2022-12-23T02:11:01.953Z,984.83
2022-12-23T02:11:32.019Z,984.83
2022-12-23T02:12:03.516Z,984.83
2022-12-23T02:12:35.478Z,984.83
2022-12-23T02:13:07.435Z,984.83
2022-12-23T02:13:34.145Z,984.73
2022-12-23T02:13:55.483Z,984.73
2022-12-23T02:14:27.520Z,984.73
2022-12-23T02:14:59.769Z,984.93
2022-12-23T02:15:32.583Z,984.93
2022-12-23T02:16:03.808Z,984.83
2022-12-23T02:16:35.489Z,984.83
2022-12-23T02:17:07.541Z,984.93
2022-12-23T02:17:34.137Z,984.93
2022-12-23T02:17:55.477Z,984.93
2022-12-23T02:18:27.529Z,984.93
2022-12-23T02:18:59.589Z,984.93
2022-12-23T02:19:32.254Z,984.93
2022-12-23T02:20:04.887Z,984.93
2022-12-23T02:20:35.577Z,984.93
2022-12-23T02:21:07.451Z,984.93
2022-12-23T02:21:34.213Z,984.93
2022-12-23T02:21:55.481Z,984.93
2022-12-23T02:22:27.490Z,984.93
2022-12-23T02:22:59.580Z,984.93
2022-12-23T02:23:31.972Z,984.93
2022-12-23T02:24:03.613Z,985.13
2022-12-23T02:24:36.560Z,985.13
2022-12-23T02:25:07.889Z,984.83
2022-12-23T02:25:34.126Z,984.83
2022-12-23T02:25:55.724Z,984.83
2022-12-23T02:26:28.351Z,984.83
2022-12-23T02:26:59.679Z,985.03
2022-12-23T02:27:31.996Z,985.03
2022-12-23T02:28:03.436Z,985.03
2022-12-23T02:28:37.598Z,985.03
2022-12-23T02:29:07.561Z,985.03
2022-12-23T02:29:34.812Z,984.93
2022-12-23T02:29:55.469Z,984.93
2022-12-23T02:30:28.072Z,984.93
2022-12-23T02:30:59.576Z,985.03
2022-12-23T02:31:32.026Z,985.03
2022-12-23T02:32:03.467Z,985.34
2022-12-23T02:32:36.318Z,985.34
2022-12-23T02:33:07.451Z,985.34
2022-12-23T02:33:34.252Z,985.23
2022-12-23T02:33:55.523Z,985.23
2022-12-23T02:34:27.459Z,985.23
2022-12-23T02:34:59.576Z,985.34
2022-12-23T02:35:32.264Z,985.34
2022-12-23T02:36:03.521Z,985.23
2022-12-23T02:36:35.475Z,985.23
2022-12-23T02:37:07.494Z,985.34
2022-12-23T02:37:34.124Z,985.23
2022-12-23T02:37:55.442Z,985.23
2022-12-23T02:38:43.411Z,985.13
2022-12-23T02:39:15.466Z,985.13
2022-12-23T02:39:37.086Z,985.23
2022-12-23T02:40:03.992Z,985.23
2022-12-23T02:40:35.418Z,985.23
2022-12-23T02:41:07.421Z,985.13
2022-12-23T02:41:34.684Z,985.44
2022-12-23T02:41:55.451Z,985.44
2022-12-23T02:42:27.440Z,985.44
2022-12-23T02:42:59.487Z,985.23
2022-12-23T02:43:31.896Z,985.23
2022-12-23T02:44:03.465Z,985.23
2022-12-23T02:44:35.457Z,985.23
2022-12-23T02:45:07.959Z,985.44
2022-12-23T02:45:34.105Z,985.34
2022-12-23T02:45:55.716Z,985.34
2022-12-23T02:46:27.495Z,985.34
2022-12-23T02:46:59.504Z,985.34
2022-12-23T02:47:31.813Z,985.34
2022-12-23T02:48:03.400Z,985.34
2022-12-23T02:48:36.587Z,985.34
2022-12-23T02:49:07.448Z,985.44
2022-12-23T02:49:34.084Z,985.34
2022-12-23T02:49:55.456Z,985.34
2022-12-23T02:50:27.751Z,985.34
2022-12-23T02:50:59.531Z,985.44
2022-12-23T02:51:32.200Z,985.44
2022-12-23T02:52:03.447Z,985.34
2022-12-23T02:52:35.707Z,985.34
2022-12-23T02:53:07.471Z,985.34
2022-12-23T02:53:34.113Z,985.44
2022-12-23T02:53:55.437Z,985.44
2022-12-23T02:54:27.433Z,985.44
2022-12-23T02:55:00.163Z,985.44
2022-12-23T02:55:32.130Z,985.44
2022-12-23T02:56:03.431Z,985.44
2022-12-23T02:56:35.410Z,985.44
2022-12-23T02:57:07.435Z,985.23
2022-12-23T02:57:34.069Z,985.54
2022-12-23T02:57:55.403Z,985.54
2022-12-23T02:58:27.450Z,985.54
2022-12-23T02:58:59.531Z,985.54
2022-12-23T02:59:31.872Z,985.54
2022-12-23T03:00:04.275Z,985.64
2022-12-23T03:00:35.470Z,985.64
2022-12-23T03:01:07.510Z,985.44
2022-12-23T03:01:34.273Z,985.54
2022-12-23T03:01:55.530Z,985.54
2022-12-23T03:02:27.575Z,985.54
2022-12-23T03:02:59.688Z,985.44
2022-12-23T03:03:31.851Z,985.44
2022-12-23T03:04:04.478Z,985.44
2022-12-23T03:04:36.321Z,985.44
2022-12-23T03:05:07.747Z,985.23
2022-12-23T03:05:34.082Z,985.54
2022-12-23T03:05:55.726Z,985.54
2022-12-23T03:06:27.423Z,985.54
2022-12-23T03:07:04.349Z,985.54
2022-12-23T03:07:31.872Z,985.54
2022-12-23T03:08:03.432Z,985.54
2022-12-23T03:08:35.701Z,985.54
2022-12-23T03:09:07.463Z,985.54
2022-12-23T03:09:34.475Z,985.54
2022-12-23T03:09:55.408Z,985.54
2022-12-23T03:10:27.676Z,985.54
2022-12-23T03:11:00.535Z,985.54
2022-12-23T03:11:32.048Z,985.54
2022-12-23T03:12:03.494Z,985.64
2022-12-23T03:12:35.494Z,985.64
2022-12-23T03:13:07.467Z,985.64
2022-12-23T03:13:34.663Z,985.54
2022-12-23T03:13:55.487Z,985.54
2022-12-23T03:14:27.518Z,985.54
2022-12-23T03:14:59.549Z,985.44
2022-12-23T03:15:32.534Z,985.44
2022-12-23T03:16:03.921Z,985.54
2022-12-23T03:16:35.556Z,985.54
2022-12-23T03:17:07.483Z,985.64
2022-12-23T03:17:34.922Z,985.54
2022-12-23T03:17:55.491Z,985.54
2022-12-23T03:18:27.468Z,985.54
2022-12-23T03:18:59.670Z,985.71
2022-12-23T03:19:31.932Z,985.71
2022-12-23T03:20:04.920Z,985.64
2022-12-23T03:20:35.885Z,985.64
2022-12-23T03:21:07.456Z,985.71
2022-12-23T03:21:34.119Z,985.64
2022-12-23T03:21:55.891Z,985.64
2022-12-23T03:22:27.457Z,985.64
2022-12-23T03:22:59.522Z,985.54
2022-12-23T03:23:31.894Z,985.54
2022-12-23T03:24:03.430Z,985.91
2022-12-23T03:24:35.453Z,985.91
2022-12-23T03:25:07.875Z,985.71
2022-12-23T03:25:34.085Z,985.44
2022-12-23T03:25:55.700Z,985.44
2022-12-23T03:26:28.380Z,985.44
2022-12-23T03:26:59.394Z,985.81
2022-12-23T03:27:31.792Z,985.81
2022-12-23T03:28:03.497Z,985.71
2022-12-23T03:28:35.391Z,985.71
2022-12-23T03:29:07.375Z,985.64
2022-12-23T03:29:38.945Z,985.81
2022-12-23T03:29:55.467Z,985.81
2022-12-23T03:30:27.950Z,985.81
2022-12-23T03:30:59.630Z,985.81
2022-12-23T03:31:32.131Z,985.81
2022-12-23T03:32:03.456Z,985.71
2022-12-23T03:32:35.429Z,985.71
2022-12-23T03:33:07.421Z,985.91
2022-12-23T03:33:34.206Z,986.01
2022-12-23T03:33:55.485Z,986.01
2022-12-23T03:34:27.424Z,986.01
2022-12-23T03:34:59.453Z,986.01
2022-12-23T03:35:32.127Z,986.01
2022-12-23T03:36:04.324Z,986.01
2022-12-23T03:36:35.700Z,986.01
2022-12-23T03:37:07.376Z,985.81
2022-12-23T03:37:34.062Z,986.01
2022-12-23T03:37:55.469Z,986.01
2022-12-23T03:38:27.393Z,986.01
2022-12-23T03:38:59.500Z,986.01
2022-12-23T03:39:32.084Z,986.01
2022-12-23T03:40:03.777Z,985.81
2022-12-23T03:40:35.402Z,985.81
2022-12-23T03:41:07.538Z,986.11
2022-12-23T03:41:34.087Z,986.01
2022-12-23T03:41:55.442Z,986.01
2022-12-23T03:42:28.311Z,986.01
2022-12-23T03:42:59.460Z,985.91
2022-12-23T03:43:31.506Z,985.91
2022-12-23T03:44:03.526Z,986.01
2022-12-23T03:44:35.408Z,986.01
2022-12-23T03:45:40.391Z,985.91
2022-12-23T03:45:55.754Z,985.91
2022-12-23T03:46:27.507Z,985.91
2022-12-23T03:46:59.601Z,986.01
2022-12-23T03:47:31.999Z,986.01
2022-12-23T03:48:03.443Z,986.01
2022-12-23T03:48:36.233Z,986.01
2022-12-23T03:49:07.391Z,986.11
2022-12-23T03:49:35.528Z,985.81
2022-12-23T03:49:55.406Z,985.81
2022-12-23T03:50:27.657Z,985.81
2022-12-23T03:50:59.551Z,986.01
2022-12-23T03:51:31.459Z,986.01
2022-12-23T03:52:03.369Z,986.01
2022-12-23T03:52:35.932Z,986.01
2022-12-23T03:53:07.491Z,986.01
2022-12-23T03:53:34.144Z,986.01
2022-12-23T03:53:55.470Z,986.01
2022-12-23T03:54:27.412Z,986.01
2022-12-23T03:55:00.860Z,986.11
2022-12-23T03:55:31.450Z,986.11
2022-12-23T03:56:03.547Z,985.91
2022-12-23T03:56:35.430Z,985.91
2022-12-23T03:57:07.429Z,986.22
2022-12-23T03:57:34.084Z,986.32
2022-12-23T03:57:55.439Z,986.32
2022-12-23T03:58:27.409Z,986.32
2022-12-23T03:58:59.482Z,986.32
2022-12-23T03:59:31.522Z,986.32
2022-12-23T04:00:04.298Z,986.32
2022-12-23T04:00:35.460Z,986.32
2022-12-23T04:01:07.368Z,986.11
2022-12-23T04:01:34.129Z,986.22
2022-12-23T04:01:55.570Z,986.22
2022-12-23T04:02:27.718Z,986.22
2022-12-23T04:02:59.775Z,986.42
2022-12-23T04:03:31.599Z,986.42
2022-12-23T04:04:03.640Z,986.42
2022-12-23T04:04:36.631Z,986.42
2022-12-23T04:05:07.885Z,986.32
2022-12-23T04:05:35.033Z,986.32
2022-12-23T04:05:55.635Z,986.32
2022-12-23T04:06:27.431Z,986.32
2022-12-23T04:06:59.492Z,986.52
2022-12-23T04:07:31.427Z,986.52
2022-12-23T04:08:03.415Z,986.32
2022-12-23T04:08:35.440Z,986.32
2022-12-23T04:09:07.385Z,986.22
2022-12-23T04:09:34.070Z,986.42
2022-12-23T04:09:55.499Z,986.42
2022-12-23T04:10:27.719Z,986.42
2022-12-23T04:11:00.304Z,986.32
2022-12-23T04:11:31.464Z,986.32
2022-12-23T04:12:03.444Z,986.32
2022-12-23T04:12:35.379Z,986.32
2022-12-23T04:13:07.443Z,986.62
2022-12-23T04:13:34.049Z,986.42
2022-12-23T04:13:55.418Z,986.42
2022-12-23T04:14:27.408Z,986.42
2022-12-23T04:14:59.442Z,986.42
2022-12-23T04:15:32.325Z,986.42
2022-12-23T04:16:03.669Z,986.52
2022-12-23T04:16:35.421Z,986.52
2022-12-23T04:17:07.414Z,986.52
2022-12-23T04:17:34.475Z,986.52
2022-12-23T04:17:55.482Z,986.52
2022-12-23T04:18:27.431Z,986.52
2022-12-23T04:18:59.499Z,986.62
2022-12-23T04:19:31.489Z,986.62
2022-12-23T04:20:04.585Z,986.62
2022-12-23T04:20:35.557Z,986.62
2022-12-23T04:21:07.393Z,986.62
2022-12-23T04:21:34.076Z,986.72
2022-12-23T04:21:55.439Z,986.72
2022-12-23T04:22:27.383Z,986.72
2022-12-23T04:22:59.536Z,986.62
2022-12-23T04:23:31.420Z,986.62
2022-12-23T04:24:03.377Z,986.62
2022-12-23T04:24:35.407Z,986.62
2022-12-23T04:25:07.886Z,986.62
2022-12-23T04:25:34.048Z,986.72
2022-12-23T04:25:55.646Z,986.72
2022-12-23T04:26:28.208Z,986.72
2022-12-23T04:26:59.472Z,986.93
2022-12-23T04:27:31.423Z,986.93
2022-12-23T04:28:03.408Z,986.83
2022-12-23T04:28:35.419Z,986.83
2022-12-23T04:29:07.420Z,986.83
2022-12-23T04:29:35.051Z,986.62
2022-12-23T04:29:55.413Z,986.62
2022-12-23T04:30:33.601Z,986.62
2022-12-23T04:30:59.524Z,986.72
2022-12-23T04:31:31.531Z,986.72
2022-12-23T04:32:03.415Z,986.62
2022-12-23T04:32:36.397Z,986.62
2022-12-23T04:33:07.410Z,986.52
2022-12-23T04:33:34.066Z,986.72
2022-12-23T04:33:55.435Z,986.72
2022-12-23T04:34:28.526Z,986.72
2022-12-23T04:34:59.485Z,986.72
2022-12-23T04:35:32.090Z,986.72
2022-12-23T04:36:03.396Z,986.83
2022-12-23T04:36:35.458Z,986.83
2022-12-23T04:37:07.480Z,986.83
2022-12-23T04:37:34.057Z,986.72
2022-12-23T04:37:55.386Z,986.72
2022-12-23T04:38:27.410Z,986.72
2022-12-23T04:39:00.141Z,986.52
2022-12-23T04:39:31.408Z,986.52
2022-12-23T04:40:03.716Z,986.52
2022-12-23T04:40:35.390Z,986.52
2022-12-23T04:41:07.354Z,986.83
2022-12-23T04:41:34.848Z,986.62
2022-12-23T04:41:55.544Z,986.62
2022-12-23T04:42:27.397Z,986.62
2022-12-23T04:42:59.460Z,986.72
2022-12-23T04:43:31.472Z,986.72
2022-12-23T04:44:03.415Z,986.62
2022-12-23T04:44:35.399Z,986.62
2022-12-23T04:45:08.100Z,986.62
2022-12-23T04:45:34.121Z,986.62
2022-12-23T04:45:55.648Z,986.62
2022-12-23T04:46:27.594Z,986.62
2022-12-23T04:46:59.508Z,986.62
2022-12-23T04:47:31.395Z,986.62
2022-12-23T04:48:03.381Z,986.52
2022-12-23T04:48:36.384Z,986.52
2022-12-23T04:49:07.416Z,986.42
2022-12-23T04:49:34.059Z,986.52
2022-12-23T04:49:55.461Z,986.52
2022-12-23T04:50:27.740Z,986.52
2022-12-23T04:50:59.431Z,986.52
2022-12-23T04:51:31.450Z,986.52
2022-12-23T04:52:03.417Z,986.93
2022-12-23T04:52:36.243Z,986.93
2022-12-23T04:53:07.365Z,986.52
2022-12-23T04:53:34.052Z,986.62
2022-12-23T04:53:55.403Z,986.62
2022-12-23T04:54:27.382Z,986.62
2022-12-23T04:55:00.845Z,986.72
2022-12-23T04:55:31.426Z,986.72
2022-12-23T04:56:03.396Z,986.83
2022-12-23T04:56:35.422Z,986.83
2022-12-23T04:57:07.415Z,986.52
2022-12-23T04:57:34.022Z,986.62
2022-12-23T04:57:55.437Z,986.62
2022-12-23T04:58:27.435Z,986.62
2022-12-23T04:58:59.474Z,986.62
2022-12-23T04:59:31.479Z,986.62
2022-12-23T05:00:04.251Z,986.62
2022-12-23T05:00:39.496Z,986.62
2022-12-23T05:01:07.487Z,986.83
2022-12-23T05:01:34.130Z,986.72
2022-12-23T05:01:55.559Z,986.72
2022-12-23T05:02:27.113Z,986.72
2022-12-23T05:02:59.420Z,986.62
2022-12-23T05:03:30.933Z,986.62
2022-12-23T05:04:02.882Z,986.62
2022-12-23T05:04:35.775Z,986.62
2022-12-23T05:05:07.384Z,986.62
2022-12-23T05:05:33.835Z,986.62
2022-12-23T05:05:55.159Z,986.62
2022-12-23T05:06:27.666Z,986.62
2022-12-23T05:07:01.541Z,986.62
2022-12-23T05:07:31.444Z,986.62
2022-12-23T05:08:03.408Z,986.83
2022-12-23T05:08:35.518Z,986.83
2022-12-23T05:09:07.545Z,986.72
2022-12-23T05:09:34.013Z,986.93
2022-12-23T05:09:55.415Z,986.93
2022-12-23T05:10:27.709Z,986.93
2022-12-23T05:11:00.389Z,986.72
2022-12-23T05:11:34.029Z,986.72
2022-12-23T05:12:03.391Z,986.93
2022-12-23T05:12:35.460Z,986.93
2022-12-23T05:13:07.391Z,986.72
2022-12-23T05:13:34.015Z,986.83
2022-12-23T05:13:55.431Z,986.83
2022-12-23T05:14:27.439Z,986.83
2022-12-23T05:14:59.823Z,986.83
2022-12-23T05:15:32.035Z,986.83
2022-12-23T05:16:03.641Z,986.72
2022-12-23T05:16:35.728Z,986.72
2022-12-23T05:17:08.115Z,986.93
2022-12-23T05:17:34.034Z,986.93
2022-12-23T05:17:55.452Z,986.93
2022-12-23T05:18:27.460Z,986.93
2022-12-23T05:18:59.784Z,986.93
2022-12-23T05:19:31.367Z,986.93
2022-12-23T05:20:04.506Z,986.93
2022-12-23T05:20:35.427Z,986.93
2022-12-23T05:21:07.405Z,987.03
2022-12-23T05:21:34.077Z,986.72
2022-12-23T05:21:55.444Z,986.72
2022-12-23T05:22:27.472Z,986.72
2022-12-23T05:23:00.091Z,986.93
2022-12-23T05:23:31.419Z,986.93
2022-12-23T05:24:03.421Z,986.93
2022-12-23T05:24:35.516Z,986.93
2022-12-23T05:25:07.705Z,986.72
2022-12-23T05:25:34.017Z,986.93
2022-12-23T05:25:55.700Z,986.93
2022-12-23T05:26:28.194Z,986.93
2022-12-23T05:27:00.578Z,986.83
2022-12-23T05:27:31.389Z,986.83
2022-12-23T05:28:03.388Z,986.83
2022-12-23T05:28:35.473Z,986.83
2022-12-23T05:29:07.424Z,986.83
2022-12-23T05:29:34.823Z,986.72
2022-12-23T05:29:55.465Z,986.72
2022-12-23T05:30:28.142Z,986.72
2022-12-23T05:30:59.861Z,986.72
2022-12-23T05:31:31.450Z,986.72
2022-12-23T05:32:03.433Z,986.52
2022-12-23T05:32:36.332Z,986.52
2022-12-23T05:33:07.474Z,986.93
2022-12-23T05:33:34.071Z,986.52
2022-12-23T05:33:58.384Z,986.52
2022-12-23T05:34:27.390Z,986.52
2022-12-23T05:34:59.819Z,986.72
2022-12-23T05:35:31.732Z,986.72
2022-12-23T05:36:03.415Z,986.72
2022-12-23T05:36:35.405Z,986.72
2022-12-23T05:37:07.379Z,986.72
2022-12-23T05:37:34.040Z,986.83
2022-12-23T05:37:55.768Z,986.83
2022-12-23T05:38:27.448Z,986.83
2022-12-23T05:39:00.361Z,986.83
2022-12-23T05:39:31.395Z,986.83
2022-12-23T05:40:03.642Z,986.62
2022-12-23T05:40:35.613Z,986.62
2022-12-23T05:41:10.854Z,986.52
2022-12-23T05:41:34.107Z,986.62
2022-12-23T05:41:55.404Z,986.62
2022-12-23T05:42:27.407Z,986.62
2022-12-23T05:42:59.816Z,986.72
2022-12-23T05:43:31.364Z,986.72
2022-12-23T05:44:03.412Z,986.83
2022-12-23T05:44:35.456Z,986.83
2022-12-23T05:45:07.960Z,986.72
2022-12-23T05:45:34.387Z,986.72
2022-12-23T05:45:55.768Z,986.72
2022-12-23T05:46:27.593Z,986.72
2022-12-23T05:46:59.809Z,986.72
2022-12-23T05:47:31.432Z,986.72
2022-12-23T05:48:03.457Z,986.72
2022-12-23T05:48:36.110Z,986.72
2022-12-23T05:49:07.418Z,986.72
2022-12-23T05:49:33.987Z,986.83
2022-12-23T05:50:02.246Z,986.83
2022-12-23T05:50:27.410Z,986.83
2022-12-23T05:51:00.173Z,986.83
2022-12-23T05:51:31.374Z,986.83
2022-12-23T05:52:03.381Z,986.93
2022-12-23T05:52:35.446Z,986.93
2022-12-23T05:53:07.542Z,986.83
2022-12-23T05:53:43.815Z,986.72
2022-12-23T05:54:11.407Z,986.72
2022-12-23T05:54:34.004Z,986.93
2022-12-23T05:55:00.934Z,986.93
2022-12-23T05:55:31.420Z,986.93
2022-12-23T05:56:03.414Z,986.93
2022-12-23T05:56:35.520Z,986.93
2022-12-23T05:57:07.422Z,986.93
2022-12-23T05:57:34.001Z,986.93
2022-12-23T05:57:55.634Z,986.93
2022-12-23T05:58:27.411Z,986.93
2022-12-23T05:58:59.823Z,986.83
2022-12-23T05:59:31.954Z,986.83
2022-12-23T06:00:03.918Z,986.83
2022-12-23T06:00:35.469Z,986.83
2022-12-23T06:01:07.406Z,987.03
2022-12-23T06:01:34.466Z,986.62
2022-12-23T06:01:55.564Z,986.62
2022-12-23T06:02:27.661Z,986.62
2022-12-23T06:02:59.998Z,986.72
2022-12-23T06:03:31.609Z,986.72
2022-12-23T06:04:03.535Z,986.72
2022-12-23T06:04:36.205Z,986.72
2022-12-23T06:05:07.799Z,986.72
2022-12-23T06:05:34.054Z,986.93
2022-12-23T06:05:55.667Z,986.93
2022-12-23T06:06:27.638Z,986.93
2022-12-23T06:06:59.791Z,986.83
2022-12-23T06:07:31.380Z,986.83
2022-12-23T06:08:03.401Z,986.72
2022-12-23T06:08:35.448Z,986.72
2022-12-23T06:09:07.377Z,986.72
2022-12-23T06:09:33.999Z,986.72
2022-12-23T06:09:55.413Z,986.72
2022-12-23T06:10:27.707Z,986.72
2022-12-23T06:11:00.499Z,986.83
2022-12-23T06:11:31.424Z,986.83
2022-12-23T06:12:03.408Z,986.93
2022-12-23T06:12:35.479Z,986.93
2022-12-23T06:13:07.413Z,986.72
2022-12-23T06:13:34.103Z,986.93
2022-12-23T06:13:55.412Z,986.93
2022-12-23T06:14:29.319Z,986.93